Star Helena — V7KJ9 — position and weather

sailwx.info

Track history (hours):
 
Tides and Currents Weather Stations Pressure Air Temp Water Temp Dewpoint Dewpoint Depression Visibility Wind Speed Wind Dir Waves Ship Positions

Star Helena

Last reported at 2018-Apr-21 11:29 UTC. Time now 2018-Apr-21 11:45 UTC.
Position N 46°13' W 123°47'.

Length 229 m; draft 7 m.

Type: Cargo ship. MMSI: 538002630.

Date/timePositionNaut miles runAvg speedWind from/ knotsBaromVisibWave heightAir tempDewpointWater temp
2018-Apr-21 11:29N 46°13' W 123°47'0 0.0
2018-Apr-21 10:59N 46°13' W 123°47'0 0.0
2018-Apr-21 10:29N 46°13' W 123°47'0 0.1
2018-Apr-21 09:59N 46°13' W 123°47'0 0.0
2018-Apr-21 09:29N 46°13' W 123°47'0 0.1
2018-Apr-21 08:59N 46°13' W 123°47'0 0.1
2018-Apr-21 08:29N 46°13' W 123°47'0 0.3
2018-Apr-21 07:59N 46°13' W 123°47'0 0.3
2018-Apr-21 07:29N 46°13' W 123°47'0 0.0
2018-Apr-21 06:53N 46°13' W 123°47'0 0.1
2018-Apr-21 06:23N 46°13' W 123°48'0 0.0
2018-Apr-21 05:59N 46°13' W 123°48'0 0.0
2018-Apr-21 05:29N 46°13' W 123°48'0 0.0
2018-Apr-21 04:56N 46°13' W 123°48'0 0.0
2018-Apr-21 04:29N 46°13' W 123°48'0 0.0
2018-Apr-21 03:59N 46°13' W 123°48'0 0.0
2018-Apr-21 03:29N 46°13' W 123°48'0 0.0
2018-Apr-21 02:59N 46°13' W 123°48'0 0.2
2018-Apr-21 02:26N 46°13' W 123°47'0 0.4
2018-Apr-21 01:59N 46°13' W 123°47'0 0.1
2018-Apr-21 01:17N 46°13' W 123°47'0 0.0
2018-Apr-21 00:59N 46°13' W 123°47'0 0.0
2018-Apr-21 00:26N 46°13' W 123°47'0 0.0
2018-Apr-20 23:56N 46°13' W 123°47'0 0.0
2018-Apr-20 23:29N 46°13' W 123°47'0 0.0
2018-Apr-20 22:59N 46°13' W 123°47'0 0.0
2018-Apr-20 22:08N 46°13' W 123°47'0 0.0
2018-Apr-20 21:59N 46°13' W 123°47'0 0.3
2018-Apr-20 21:26N 46°13' W 123°47'0 0.1
2018-Apr-20 20:59N 46°13' W 123°47'0 0.1
2018-Apr-20 20:29N 46°13' W 123°47'1 1.1
2018-Apr-20 20:00N 46°12' W 123°48'4 8.5
2018-Apr-20 19:30N 46°11' W 123°54'712.2
2018-Apr-20 18:58N 46°15' W 124°02'5 9.9
2018-Apr-20 18:30N 46°14' W 124°08'510.2
2018-Apr-20 18:01N 46°12' W 124°15'710.8
2018-Apr-20 17:22N 46°10' W 124°24'410.8
2018-Apr-20 17:01N 46°10' W 124°30'4 8.9
2018-Apr-20 16:30N 46°08' W 124°36'0 0.3
2018-Apr-20 15:58N 46°08' W 124°36'0 0.4
2018-Apr-20 15:25N 46°08' W 124°36'0 0.3
2018-Apr-20 14:55N 46°08' W 124°36'0 0.2
2018-Apr-20 14:25N 46°08' W 124°36'0 0.1
2018-Apr-20 13:58N 46°08' W 124°36'0 0.2
2018-Apr-20 13:28N 46°08' W 124°36'0 0.2
2018-Apr-20 12:58N 46°09' W 124°36'0 0.3
2018-Apr-20 12:28N 46°09' W 124°37'0 0.1
2018-Apr-20 11:58N 46°09' W 124°37'0 0.4
2018-Apr-20 11:28N 46°09' W 124°36'0 0.4
2018-Apr-20 10:58N 46°09' W 124°37'0 0.3
2018-Apr-20 10:28N 46°09' W 124°36'0 0.5
2018-Apr-20 09:58N 46°09' W 124°36'0 0.5
2018-Apr-20 09:22N 46°10' W 124°36'0 0.5
2018-Apr-20 08:55N 46°10' W 124°36'0 0.8
2018-Apr-20 08:28N 46°10' W 124°37'0 0.6
2018-Apr-20 07:59N 46°11' W 124°37'0 0.7
2018-Apr-20 07:25N 46°11' W 124°37'0 0.8
2018-Apr-20 06:55N 46°11' W 124°37'0 0.6
2018-Apr-20 06:28N 46°12' W 124°37'0 0.9
2018-Apr-20 05:58N 46°12' W 124°37'1 1.0
2018-Apr-20 05:25N 46°13' W 124°37'1 1.4
2018-Apr-20 05:00N 46°13' W 124°36'3 5.1
2018-Apr-20 04:30N 46°14' W 124°33'0 0.5
2018-Apr-20 03:54N 46°14' W 124°33'0 0.6
2018-Apr-20 03:24N 46°14' W 124°33'0 0.5
2018-Apr-20 03:00N 46°14' W 124°34'0 0.9
2018-Apr-20 02:30N 46°14' W 124°34'1 1.2
2018-Apr-20 01:54N 46°13' W 124°35'0 1.1
2018-Apr-20 01:30N 46°13' W 124°36'0 1.0
2018-Apr-20 01:00N 46°13' W 124°36'0 1.0
2018-Apr-20 00:30N 46°12' W 124°37'0 0.9
2018-Apr-20 00:00N 46°12' W 124°37'0 0.9
2018-Apr-19 23:30N 46°11' W 124°37'0 0.8
2018-Apr-19 23:00N 46°11' W 124°37'0 0.7
2018-Apr-19 22:30N 46°11' W 124°37'0 0.8
2018-Apr-19 22:00N 46°10' W 124°37'0 0.5
2018-Apr-19 21:30N 46°10' W 124°37'0 0.4
2018-Apr-19 21:00N 46°10' W 124°37'0 0.7
2018-Apr-19 20:30N 46°10' W 124°36'0 0.3
2018-Apr-19 19:57N 46°10' W 124°36'0 0.4
2018-Apr-19 19:30N 46°11' W 124°36'0 0.6
2018-Apr-19 19:00N 46°11' W 124°36'0 0.8
2018-Apr-19 18:27N 46°11' W 124°36'1 1.0
2018-Apr-19 17:54N 46°12' W 124°36'1 1.1
2018-Apr-19 17:27N 46°12' W 124°36'1 1.6
2018-Apr-19 17:01N 46°12' W 124°35'2 4.2
2018-Apr-19 16:30N 46°11' W 124°32'2 4.9
2018-Apr-19 16:00N 46°11' W 124°29'2 4.9
2018-Apr-19 15:30N 46°11' W 124°25'3 5.3
2018-Apr-19 15:01N 46°11' W 124°21'1 1.7
2018-Apr-19 14:30N 46°11' W 124°22'1 2.1
2018-Apr-19 14:00N 46°11' W 124°24'2 4.7
2018-Apr-19 13:30N 46°11' W 124°27'3 5.5
2018-Apr-19 13:00N 46°11' W 124°31'510.7
2018-Apr-19 12:30N 46°11' W 124°39'612.3
2018-Apr-19 12:01N 46°11' W 124°48'812.3
2018-Apr-19 11:21N 46°12' W 124°60'412.3
2018-Apr-19 11:00N 46°12' W 125°06'612.4
2018-Apr-19 10:30N 46°12' W 125°14'612.0
2018-Apr-19 10:00N 46°12' W 125°23'611.9
2018-Apr-19 09:30N 46°12' W 125°32'611.9
2018-Apr-19 09:00N 46°12' W 125°40'611.9
2018-Apr-19 08:30N 46°12' W 125°49'611.9
2018-Apr-19 08:00N 46°12' W 125°58'  
Track history (hours):
 
Tides and Currents Weather Stations Pressure Air Temp Water Temp Dewpoint Dewpoint Depression Visibility Wind Speed Wind Dir Waves Ship Positions

Star Helena

Last reported at 2018-Apr-21 11:29 UTC. Time now 2018-Apr-21 11:45 UTC.
Position N 46°13' W 123°47'.

Length 229 m; draft 7 m.

Type: Cargo ship. MMSI: 538002630.

Date/timePositionNaut miles runAvg speedWind from/ knotsBaromVisibWave heightAir tempDewpointWater temp
2018-Apr-21 11:29N 46°13' W 123°47'0 0.0
2018-Apr-21 10:59N 46°13' W 123°47'0 0.0
2018-Apr-21 10:29N 46°13' W 123°47'0 0.1
2018-Apr-21 09:59N 46°13' W 123°47'0 0.0
2018-Apr-21 09:29N 46°13' W 123°47'0 0.1
2018-Apr-21 08:59N 46°13' W 123°47'0 0.1
2018-Apr-21 08:29N 46°13' W 123°47'0 0.3
2018-Apr-21 07:59N 46°13' W 123°47'0 0.3
2018-Apr-21 07:29N 46°13' W 123°47'0 0.0
2018-Apr-21 06:53N 46°13' W 123°47'0 0.1
2018-Apr-21 06:23N 46°13' W 123°48'0 0.0
2018-Apr-21 05:59N 46°13' W 123°48'0 0.0
2018-Apr-21 05:29N 46°13' W 123°48'0 0.0
2018-Apr-21 04:56N 46°13' W 123°48'0 0.0
2018-Apr-21 04:29N 46°13' W 123°48'0 0.0
2018-Apr-21 03:59N 46°13' W 123°48'0 0.0
2018-Apr-21 03:29N 46°13' W 123°48'0 0.0
2018-Apr-21 02:59N 46°13' W 123°48'0 0.2
2018-Apr-21 02:26N 46°13' W 123°47'0 0.4
2018-Apr-21 01:59N 46°13' W 123°47'0 0.1
2018-Apr-21 01:17N 46°13' W 123°47'0 0.0
2018-Apr-21 00:59N 46°13' W 123°47'0 0.0
2018-Apr-21 00:26N 46°13' W 123°47'0 0.0
2018-Apr-20 23:56N 46°13' W 123°47'0 0.0
2018-Apr-20 23:29N 46°13' W 123°47'0 0.0
2018-Apr-20 22:59N 46°13' W 123°47'0 0.0
2018-Apr-20 22:08N 46°13' W 123°47'0 0.0
2018-Apr-20 21:59N 46°13' W 123°47'0 0.3
2018-Apr-20 21:26N 46°13' W 123°47'0 0.1
2018-Apr-20 20:59N 46°13' W 123°47'0 0.1
2018-Apr-20 20:29N 46°13' W 123°47'1 1.1
2018-Apr-20 20:00N 46°12' W 123°48'4 8.5
2018-Apr-20 19:30N 46°11' W 123°54'712.2
2018-Apr-20 18:58N 46°15' W 124°02'5 9.9
2018-Apr-20 18:30N 46°14' W 124°08'510.2
2018-Apr-20 18:01N 46°12' W 124°15'710.8
2018-Apr-20 17:22N 46°10' W 124°24'410.8
2018-Apr-20 17:01N 46°10' W 124°30'4 8.9
2018-Apr-20 16:30N 46°08' W 124°36'0 0.3
2018-Apr-20 15:58N 46°08' W 124°36'0 0.4
2018-Apr-20 15:25N 46°08' W 124°36'0 0.3
2018-Apr-20 14:55N 46°08' W 124°36'0 0.2
2018-Apr-20 14:25N 46°08' W 124°36'0 0.1
2018-Apr-20 13:58N 46°08' W 124°36'0 0.2
2018-Apr-20 13:28N 46°08' W 124°36'0 0.2
2018-Apr-20 12:58N 46°09' W 124°36'0 0.3
2018-Apr-20 12:28N 46°09' W 124°37'0 0.1
2018-Apr-20 11:58N 46°09' W 124°37'0 0.4
2018-Apr-20 11:28N 46°09' W 124°36'0 0.4
2018-Apr-20 10:58N 46°09' W 124°37'0 0.3
2018-Apr-20 10:28N 46°09' W 124°36'0 0.5
2018-Apr-20 09:58N 46°09' W 124°36'0 0.5
2018-Apr-20 09:22N 46°10' W 124°36'0 0.5
2018-Apr-20 08:55N 46°10' W 124°36'0 0.8
2018-Apr-20 08:28N 46°10' W 124°37'0 0.6
2018-Apr-20 07:59N 46°11' W 124°37'0 0.7
2018-Apr-20 07:25N 46°11' W 124°37'0 0.8
2018-Apr-20 06:55N 46°11' W 124°37'0 0.6
2018-Apr-20 06:28N 46°12' W 124°37'0 0.9
2018-Apr-20 05:58N 46°12' W 124°37'1 1.0
2018-Apr-20 05:25N 46°13' W 124°37'1 1.4
2018-Apr-20 05:00N 46°13' W 124°36'3 5.1
2018-Apr-20 04:30N 46°14' W 124°33'0 0.5
2018-Apr-20 03:54N 46°14' W 124°33'0 0.6
2018-Apr-20 03:24N 46°14' W 124°33'0 0.5
2018-Apr-20 03:00N 46°14' W 124°34'0 0.9
2018-Apr-20 02:30N 46°14' W 124°34'1 1.2
2018-Apr-20 01:54N 46°13' W 124°35'0 1.1
2018-Apr-20 01:30N 46°13' W 124°36'0 1.0
2018-Apr-20 01:00N 46°13' W 124°36'0 1.0
2018-Apr-20 00:30N 46°12' W 124°37'0 0.9
2018-Apr-20 00:00N 46°12' W 124°37'0 0.9
2018-Apr-19 23:30N 46°11' W 124°37'0 0.8
2018-Apr-19 23:00N 46°11' W 124°37'0 0.7
2018-Apr-19 22:30N 46°11' W 124°37'0 0.8
2018-Apr-19 22:00N 46°10' W 124°37'0 0.5
2018-Apr-19 21:30N 46°10' W 124°37'0 0.4
2018-Apr-19 21:00N 46°10' W 124°37'0 0.7
2018-Apr-19 20:30N 46°10' W 124°36'0 0.3
2018-Apr-19 19:57N 46°10' W 124°36'0 0.4
2018-Apr-19 19:30N 46°11' W 124°36'0 0.6
2018-Apr-19 19:00N 46°11' W 124°36'0 0.8
2018-Apr-19 18:27N 46°11' W 124°36'1 1.0
2018-Apr-19 17:54N 46°12' W 124°36'1 1.1
2018-Apr-19 17:27N 46°12' W 124°36'1 1.6
2018-Apr-19 17:01N 46°12' W 124°35'2 4.2
2018-Apr-19 16:30N 46°11' W 124°32'2 4.9
2018-Apr-19 16:00N 46°11' W 124°29'2 4.9
2018-Apr-19 15:30N 46°11' W 124°25'3 5.3
2018-Apr-19 15:01N 46°11' W 124°21'1 1.7
2018-Apr-19 14:30N 46°11' W 124°22'1 2.1
2018-Apr-19 14:00N 46°11' W 124°24'2 4.7
2018-Apr-19 13:30N 46°11' W 124°27'3 5.5
2018-Apr-19 13:00N 46°11' W 124°31'510.7
2018-Apr-19 12:30N 46°11' W 124°39'612.3
2018-Apr-19 12:01N 46°11' W 124°48'812.3
2018-Apr-19 11:21N 46°12' W 124°60'412.3
2018-Apr-19 11:00N 46°12' W 125°06'612.4
2018-Apr-19 10:30N 46°12' W 125°14'612.0
2018-Apr-19 10:00N 46°12' W 125°23'611.9
2018-Apr-19 09:30N 46°12' W 125°32'611.9
2018-Apr-19 09:00N 46°12' W 125°40'611.9
2018-Apr-19 08:30N 46°12' W 125°49'611.9
2018-Apr-19 08:00N 46°12' W 125°58'  

Dump ship's entire track history